• Join FlightAware (Why Join?)
  • Login
  • US Flag 
10:54PM EDT


 

Airport Tracker/Info


-or-


 

Live Flight TrackerFlight Track Log ✈ FDX1254 ✈ 13-Jun-2013 ✈ KFWA - KMEM

Flight Track Log - Related Links

Times and Time Zones

All times are in EDT time to prevent confusion due to time zone crossing. See the FDX1254 flight status page for this flight to view local times or setup timezone preferences in your user account.

Time Position Orientation Groundspeed Altitude Reporting Facility
EDT Latitude Longitude Course Direction KTS MPH feet Rate Location/Type
11:47PM 40.6950 -85.3910 220° Southwest 287 330 9,400  Level FlightAware
11:48PM 40.6090 -85.5390 233° Southwest 406 467 15,500 5,700 Climbing FlightAware
11:48PM 40.5570 -85.6030 223° Southwest 420 483 17,100 2,340 Climbing FlightAware
11:49PM 40.4660 -85.6990 219° Southwest 442 509 19,300 2,280 Climbing FlightAware
11:50PM 40.4000 -85.7670 218° Southwest 453 521 20,800 2,160 Climbing FlightAware
11:51PM 40.3220 -85.8480 218° Southwest 467 537 22,400 2,100 Climbing FlightAware
11:51PM 40.2510 -85.9210 218° Southwest 470 541 23,900 2,220 Climbing FlightAware
11:52PM 40.1860 -85.9880 218° Southwest 471 542 25,400 1,860 Climbing FlightAware
11:53PM 40.1010 -86.0750 218° Southwest 484 557 26,600 1,500 Climbing FlightAware
11:53PM 40.0310 -86.1460 218° Southwest 492 566 27,600 1,620 Climbing FlightAware
11:54PM 39.9550 -86.2230 218° Southwest 499 574 28,800 1,740 Climbing FlightAware
11:55PM 39.8790 -86.3010 218° Southwest 503 579 30,100 2,040 Climbing FlightAware
11:55PM 39.8030 -86.3740 216° Southwest 509 586 31,600 1,260 Climbing FlightAware
11:56PM 39.7080 -86.4490 211° Southwest 513 590 32,000 240 Climbing FlightAware
11:57PM 39.6250 -86.5110 210° Southwest 513 590 32,000  Level FlightAware
11:58PM 39.5400 -86.5760 211° Southwest 511 588 32,000 420 Level FlightAware
11:58PM 39.4530 -86.6400 210° Southwest 507 583 32,600 1,440 Climbing FlightAware
11:59PM 39.3710 -86.7020 210° Southwest 503 579 34,000 1,920 Climbing FlightAware
12:00AM 39.2870 -86.7660 211° Southwest 504 580 35,300 1,380 Climbing FlightAware
12:00AM 39.2010 -86.8290 210° Southwest 499 574 36,100 1,980 Climbing FlightAware
12:01AM 39.1290 -86.8850 211° Southwest 478 550 38,000 1,380 Climbing FlightAware
12:02AM 39.0370 -86.9520 210° Southwest 484 557 38,000  Level FlightAware
12:02AM 38.9650 -87.0060 210° Southwest 485 558 38,000  Level FlightAware
12:03AM 38.8750 -87.0720 210° Southwest 489 563 38,000  Level FlightAware
12:04AM 38.8010 -87.1270 210° Southwest 489 563 38,000  Level FlightAware
12:05AM 38.7100 -87.1940 210° Southwest 491 565 38,000  Level FlightAware
12:05AM 38.6580 -87.2330 210° Southwest 491 565 38,000 -120 Level FlightAware
12:08AM 38.5390 -87.3190 209° Southwest 484 557 37,700 -600 Descending FlightAware
12:09AM 38.2460 -87.5330 210° Southwest 480 552 36,000 -1,260 Descending FlightAware
12:09AM 38.1610 -87.5950 210° Southwest 478 550 36,000  Level FlightAware
12:10AM 38.0840 -87.6500 209° Southwest 478 550 36,000  Level FlightAware
12:11AM 37.9600 -87.7390 210° Southwest 474 545 36,000  Level FlightAware
12:12AM 37.8860 -87.8210 221° Southwest 455 524 36,000  Level FlightAware
12:12AM 37.8310 -87.9020 229° Southwest 454 522 36,000  Level FlightAware
12:13AM 37.7730 -87.9860 229° Southwest 455 524 36,000  Level FlightAware
12:14AM 37.7140 -88.0720 229° Southwest 453 521 36,000  Level FlightAware
12:15AM 37.6600 -88.1490 228° Southwest 452 520 36,000  Level FlightAware
12:15AM 37.6050 -88.2280 229° Southwest 450 518 36,000  Level FlightAware
12:16AM 37.5400 -88.3230 229° Southwest 447 514 36,000  Level FlightAware
12:17AM 37.4820 -88.4050 228° Southwest 446 513 36,000 -420 Level FlightAware
12:17AM 37.4270 -88.4840 229° Southwest 444 511 35,500 -720 Descending FlightAware
12:18AM 37.3670 -88.5670 228° Southwest 444 511 35,000 -360 Descending FlightAware
12:19AM 37.3020 -88.6580 228° Southwest 445 512 35,000  Level FlightAware
12:20AM 37.2590 -88.7190 228° Southwest 445 512 35,000  Level FlightAware
12:20AM 37.2040 -88.7960 228° Southwest 445 512 35,000  Level FlightAware
12:21AM 37.1610 -88.8560 228° Southwest 445 512 35,000  Level FlightAware
12:22AM 37.1050 -88.9340 228° Southwest 445 512 35,000  Level FlightAware
12:22AM 37.0650 -88.9900 228° Southwest 445 512 35,000  Level FlightAware
12:23AM 37.0090 -89.0680 228° Southwest 445 512 35,000  Level FlightAware
12:24AM 36.9650 -89.1280 227° Southwest 445 512 35,000  Level FlightAware
12:25AM 36.9110 -89.2030 228° Southwest 445 512 35,000  Level FlightAware
12:25AM 36.8610 -89.2730 228° Southwest 445 512 35,000  Level FlightAware
12:26AM 36.8190 -89.3310 228° Southwest 445 512 35,000  Level FlightAware
12:27AM 36.7600 -89.4130 228° Southwest 445 512 35,000  Level FlightAware
12:27AM 36.7170 -89.4730 228° Southwest 445 512 35,000  Level FlightAware
12:28AM 36.6610 -89.5500 228° Southwest 445 512 35,000 -7,800 Level FlightAware
12:29AM 36.3986 -89.6658 228° Southwest 462 532 23,100 -8,280 Descending Memphis Center
12:30AM 36.2756 -89.6928 190° South 455 524 20,700 -2,400 Descending Memphis Center
12:31AM 36.1569 -89.7219 191° South 449 517 18,300 -2,460 Descending Memphis Center
12:32AM 36.0425 -89.7461 190° South 438 504 15,800 -2,520 Descending Memphis Center
12:33AM 35.9319 -89.7725 191° South 422 486 13,400 -2,400 Descending Memphis Center
12:34AM 35.8258 -89.7964 190° South 409 471 11,000 -1,680 Descending Memphis Center
12:35AM 35.7300 -89.8147 189° South 380 437 10,100 -960 Descending Memphis Center
12:36AM 35.6486 -89.8256 186° South 337 388 9,100 -1,140 Descending Memphis Center
12:37AM 35.5650 -89.7906 161° South 296 341 7,900 -1,080 Descending Memphis Center
12:38AM 35.4836 -89.7578 162° South 301 346 7,000 -900 Descending Memphis Center
12:39AM 35.4083 -89.7253 161° South 295 339 6,200 -840 Descending Memphis Center
12:40AM 35.3394 -89.7003 164° South 270 311 5,400 -780 Descending Memphis Center
12:41AM 35.2744 -89.6781 164° South 246 283 4,700 -720 Descending Memphis Center
12:42AM 35.2161 -89.6581 164° South 220 253 4,000 -360 Descending Memphis Center
12:43AM 35.1617 -89.6561 178° South 197 227 4,000 -360 Level Memphis Center
12:44AM 35.1097 -89.6742 196° South 197 227 3,300 -540 Descending Memphis Center
12:45AM 35.0597 -89.6950 199° South 202 232 3,000 -180 Descending Memphis Center
12:46AM 35.0517 -89.7636 262° West 177 204 3,000 -360 Level Memphis Center
12:47AM 35.0564 -89.8319 275° West 190 219 2,300 -840 Descending Memphis Center
12:48AM 35.0500 -89.8833 261° West 191 220 1,400 -900 Descending KMEM
12:49AM 35.0500 -89.9333 270° West 131 151 500 -900 Descending KMEM
12:51AM 35.0333 -89.9667 265° West  Level FlightAware Approximate
12:58AM 35.0424 -89.9767 265° West  Level Estimated
12:59AM 35.0424 -89.9767 265° West  Level Estimated
01:00AM 35.0424 -89.9767 265° West  Level Estimated
01:01AM 35.0424 -89.9767 265° West  Level Estimated
01:02AM 35.0424 -89.9767 265° West  Level Estimated
01:03AM 35.0424 -89.9767 265° West  Level Estimated
01:04AM 35.0424 -89.9767 265° West  Level Estimated
01:05AM 35.0424 -89.9767 265° West  Level Estimated
01:06AM 35.0424 -89.9767 265° West  Level Estimated